createdAt,value
2024-05-09T00:00:06.443Z,11.94
2024-05-09T00:16:01.245Z,11.89
2024-05-09T00:31:02.300Z,11.94
2024-05-09T00:46:03.374Z,11.83
2024-05-09T01:00:06.087Z,11.72
2024-05-09T01:16:04.945Z,11.67
2024-05-09T01:31:05.752Z,11.72
2024-05-09T01:46:01.557Z,11.72
2024-05-09T02:00:01.685Z,11.61
2024-05-09T02:16:03.607Z,11.56
2024-05-09T02:31:04.900Z,11.5
2024-05-09T02:46:05.763Z,11.44
2024-05-09T03:00:00.419Z,11.44
2024-05-09T03:16:02.200Z,11.39
2024-05-09T03:31:02.590Z,11.33
2024-05-09T03:46:04.125Z,11.33
2024-05-09T04:00:05.515Z,11.17
2024-05-09T04:16:06.126Z,10.94
2024-05-09T04:31:01.895Z,10.94
2024-05-09T04:46:02.689Z,10.94
2024-05-09T05:00:04.076Z,11.06
2024-05-09T05:16:04.416Z,11.17
2024-05-09T05:31:05.379Z,11.28
2024-05-09T05:46:01.234Z,11.56
2024-05-09T06:00:01.234Z,11.94
2024-05-09T06:16:03.433Z,12.28
2024-05-09T06:31:04.364Z,12.61
2024-05-09T06:46:05.551Z,12.72
2024-05-09T07:00:00.569Z,13.78
2024-05-09T07:16:02.399Z,14.83
2024-05-09T07:31:02.839Z,15.17
2024-05-09T07:46:51.911Z,15.72
2024-05-09T08:00:04.410Z,15.83
2024-05-09T08:16:05.373Z,16
2024-05-09T08:31:03.149Z,16.39
2024-05-09T08:46:02.127Z,16.5
2024-05-09T09:00:03.579Z,16.67
2024-05-09T09:16:04.472Z,17.28
2024-05-09T09:31:05.365Z,17.56
2024-05-09T09:46:07.230Z,17.78
2024-05-09T10:00:00.727Z,18.33
2024-05-09T10:16:02.713Z,18.39
2024-05-09T10:31:03.760Z,17.94
2024-05-09T10:46:04.546Z,18.28
2024-05-09T11:00:06.339Z,18.78
2024-05-09T11:16:01.326Z,18.83
2024-05-09T11:31:02.694Z,18.83
2024-05-09T11:46:04.246Z,18.89
2024-05-09T12:00:05.600Z,19.78
2024-05-09T12:16:05.222Z,19.83
2024-05-09T12:31:05.619Z,19.5
2024-05-09T12:46:01.822Z,19.39
2024-05-09T13:00:02.930Z,19.94
2024-05-09T13:16:03.912Z,20.33
2024-05-09T13:31:05.086Z,19.83
2024-05-09T13:46:05.649Z,20.06
2024-05-09T14:00:00.381Z,20.61
2024-05-09T14:16:02.735Z,20.67
2024-05-09T14:31:02.897Z,20.28
2024-05-09T14:46:03.782Z,20.61
2024-05-09T15:00:05.106Z,20.56
2024-05-09T15:16:05.332Z,20.06
2024-05-09T15:31:06.183Z,20.17
2024-05-09T15:46:02.069Z,19.56
2024-05-09T16:00:05.983Z,19.28
2024-05-09T16:16:04.172Z,19.56
2024-05-09T16:31:04.935Z,19.61
2024-05-09T16:46:05.497Z,19.33
2024-05-09T17:00:14.529Z,19.06
2024-05-09T17:16:01.996Z,19
2024-05-09T17:31:01.912Z,18.5
2024-05-09T17:46:03.762Z,17.94
2024-05-09T18:00:11.799Z,17.28
2024-05-09T18:16:05.500Z,16.67
2024-05-09T18:31:00.444Z,16.06
2024-05-09T18:46:02.318Z,15.61
2024-05-09T19:00:23.042Z,15.11
2024-05-09T19:16:03.834Z,14.67
2024-05-09T19:31:03.662Z,14.11
2024-05-09T19:46:02.541Z,13.72
2024-05-09T20:00:22.196Z,13.56
2024-05-09T20:16:02.085Z,13.67
2024-05-09T20:31:02.105Z,13.44
2024-05-09T20:46:03.452Z,13.22
2024-05-09T21:00:25.985Z,12.94
2024-05-09T21:16:06.291Z,12.61
2024-05-09T21:31:01.205Z,12.17
2024-05-09T21:46:02.762Z,11.72
2024-05-09T22:00:05.661Z,11.44
2024-05-09T22:16:03.974Z,11.11
2024-05-09T22:31:05.137Z,10.78
2024-05-09T22:46:01.607Z,10.5
2024-05-09T23:00:02.577Z,10.17
2024-05-09T23:16:03.864Z,9.83
2024-05-09T23:31:03.893Z,9.5
2024-05-09T23:46:05.400Z,9.28
